Time;durP1;ratioP1;P1;durP2;ratioP2;P2;SDS_P1;SDS_P2;PMS_P1;PMS_P2;Temp;Humidity;BMP_temperature;BMP_pressure;BME280_temperature;BME280_humidity;BME280_pressure;Samples;Min_cycle;Max_cycle;Signal;HPM_P1;HPM_P2
2023/03/29 00:05:11;;;;;;;5.20;4.80;;;5.70;99.90;;;;;;2613634;54;20997;-69
2023/03/29 00:11:00;;;;;;;10.77;5.00;;;5.70;99.90;;;;;;2614776;39;20843;-69
2023/03/29 00:16:48;;;;;;;5.13;4.63;;;5.70;99.90;;;;;;2614592;54;20366;-69
2023/03/29 00:26:38;;;;;;;7.50;4.63;;;5.80;99.90;;;;;;2614212;54;20347;-68
2023/03/29 00:32:25;;;;;;;6.20;4.50;;;5.80;99.90;;;;;;2614203;54;20378;-68
2023/03/29 00:38:17;;;;;;;5.43;4.93;;;5.90;99.90;;;;;;2612896;39;20763;-69
2023/03/29 00:44:05;;;;;;;4.77;4.27;;;5.90;99.90;;;;;;2612485;54;20379;-69
2023/03/29 00:49:54;;;;;;;5.10;3.93;;;6.00;99.90;;;;;;2612801;54;20382;-68
2023/03/29 00:55:52;;;;;;;4.97;4.50;;;6.00;99.90;;;;;;2613053;54;20487;-69
2023/03/29 01:08:10;;;;;;;5.20;4.70;;;6.10;99.90;;;;;;2613548;54;20406;-74
2023/03/29 01:14:02;;;;;;;5.00;4.60;;;6.10;99.90;;;;;;2612861;54;20495;-73
2023/03/29 01:32:57;;;;;;;5.20;4.70;;;6.20;99.90;;;;;;2613925;54;20460;-74
2023/03/29 01:38:56;;;;;;;5.53;5.03;;;6.20;99.90;;;;;;2612312;54;20391;-74
2023/03/29 01:51:39;;;;;;;6.10;5.60;;;6.20;99.90;;;;;;2612991;54;20399;-74
2023/03/29 01:57:28;;;;;;;5.53;4.93;;;6.20;99.90;;;;;;2613040;54;20430;-74
2023/03/29 02:03:18;;;;;;;6.33;5.83;;;6.30;99.90;;;;;;2612913;39;20752;-73
2023/03/29 02:09:06;;;;;;;5.10;4.60;;;6.30;99.90;;;;;;2613222;54;20496;-73
2023/03/29 02:14:56;;;;;;;6.53;5.67;;;6.40;99.90;;;;;;2612534;54;20391;-74
2023/03/29 02:20:47;;;;;;;6.03;5.63;;;6.60;99.90;;;;;;2613674;39;21064;-74
2023/03/29 02:29:57;;;;;;;13.77;5.97;;;6.60;99.90;;;;;;2612691;54;20443;-77
2023/03/29 02:35:52;;;;;;;6.60;5.40;;;6.60;99.90;;;;;;2612586;54;20154;-76
2023/03/29 02:41:41;;;;;;;5.47;4.93;;;6.60;99.90;;;;;;2614037;54;20367;-76
2023/03/29 02:47:37;;;;;;;5.83;5.33;;;6.70;99.90;;;;;;2614154;54;21247;-75
2023/03/29 03:00:00;;;;;;;6.57;5.97;;;6.80;99.90;;;;;;2611105;54;20374;-76
2023/03/29 03:05:48;;;;;;;6.47;5.97;;;6.80;99.90;;;;;;2612463;54;20449;-76
2023/03/29 03:11:35;;;;;;;7.80;5.73;;;6.80;99.90;;;;;;2611222;54;20504;-76
2023/03/29 03:17:21;;;;;;;6.63;6.13;;;6.80;99.90;;;;;;2610549;54;20187;-77
2023/03/29 03:23:09;;;;;;;6.40;5.80;;;6.80;99.90;;;;;;2612637;54;20239;-76
2023/03/29 03:32:27;;;;;;;7.13;6.63;;;6.80;99.90;;;;;;2611992;54;20552;-76
2023/03/29 03:38:15;;;;;;;6.07;5.47;;;6.80;99.90;;;;;;2613903;54;20378;-76
2023/03/29 03:44:03;;;;;;;8.20;6.80;;;6.90;99.90;;;;;;2614356;54;20375;-76
2023/03/29 03:49:51;;;;;;;7.30;5.90;;;6.90;99.90;;;;;;2615188;54;20728;-76
2023/03/29 03:55:39;;;;;;;6.67;6.13;;;6.80;99.90;;;;;;2613748;54;20151;-76
2023/03/29 04:01:27;;;;;;;8.27;6.23;;;6.80;99.90;;;;;;2613793;54;20135;-76
2023/03/29 04:07:16;;;;;;;6.40;5.23;;;6.80;99.90;;;;;;2612620;46;20158;-75
2023/03/29 04:13:04;;;;;;;7.10;6.50;;;6.80;99.90;;;;;;2614316;54;20386;-77
2023/03/29 04:18:52;;;;;;;5.37;4.97;;;6.70;99.90;;;;;;2613121;54;20359;-76
2023/03/29 04:24:39;;;;;;;6.30;5.27;;;6.60;99.90;;;;;;2613647;54;20130;-76
2023/03/29 04:27:54;;;;;;;6.27;5.67;;;6.60;99.90;;;;;;2613300;54;20387;-76
2023/03/29 04:30:20;;;;;;;4.83;4.40;;;6.60;99.90;;;;;;2613645;50;20167;-76
2023/03/29 04:36:08;;;;;;;8.20;6.10;;;6.60;99.90;;;;;;2614148;54;20133;-77
2023/03/29 04:41:56;;;;;;;6.60;5.90;;;6.60;99.90;;;;;;2612531;54;20379;-74
2023/03/29 04:47:44;;;;;;;8.50;6.50;;;6.70;99.90;;;;;;2613782;39;20552;-73
2023/03/29 04:53:32;;;;;;;7.30;6.07;;;6.70;99.90;;;;;;2613138;54;20435;-72
2023/03/29 04:59:20;;;;;;;8.20;7.30;;;6.90;99.90;;;;;;2613711;54;20150;-72
2023/03/29 05:05:09;;;;;;;6.63;5.93;;;6.80;99.90;;;;;;2614639;39;20525;-72
2023/03/29 05:10:57;;;;;;;12.43;7.37;;;6.80;99.90;;;;;;2614819;54;20399;-74
2023/03/29 05:16:45;;;;;;;8.77;6.13;;;6.80;99.90;;;;;;2613957;54;20122;-74
2023/03/29 05:22:32;;;;;;;11.73;8.07;;;6.60;99.90;;;;;;2614234;54;20741;-73
2023/03/29 05:32:26;;;;;;;8.10;7.30;;;6.40;99.90;;;;;;2612514;54;20386;-73
2023/03/29 05:38:15;;;;;;;12.17;6.20;;;6.30;99.90;;;;;;2611707;54;20391;-70
2023/03/29 05:44:02;;;;;;;8.83;6.43;;;6.30;99.90;;;;;;2611208;39;20790;-69
2023/03/29 05:49:51;;;;;;;10.10;5.97;;;6.40;99.90;;;;;;2614269;54;20123;-70
2023/03/29 05:55:40;;;;;;;10.67;7.40;;;6.50;99.90;;;;;;2613061;46;20405;-70
2023/03/29 06:01:27;;;;;;;9.67;7.93;;;6.50;99.90;;;;;;2613085;54;20387;-68
2023/03/29 06:04:37;;;;;;;10.67;7.80;;;6.50;99.90;;;;;;2612485;39;20802;-69
2023/03/29 06:07:04;;;;;;;9.53;7.60;;;6.50;99.90;;;;;;2606829;54;20147;-69
2023/03/29 06:12:52;;;;;;;11.23;7.53;;;6.60;99.90;;;;;;2610966;54;22160;-70
2023/03/29 06:18:40;;;;;;;11.23;8.00;;;6.70;99.90;;;;;;2609007;54;20134;-69
2023/03/29 06:24:28;;;;;;;9.90;8.03;;;6.70;99.90;;;;;;2610189;54;20407;-69
2023/03/29 06:30:16;;;;;;;12.53;8.53;;;6.90;99.90;;;;;;2609899;54;20189;-69
2023/03/29 06:36:04;;;;;;;11.03;7.83;;;7.00;99.90;;;;;;2609356;54;20435;-69
2023/03/29 06:41:54;;;;;;;15.17;8.40;;;7.10;99.90;;;;;;2610590;54;20950;-69
2023/03/29 06:47:42;;;;;;;8.10;6.83;;;7.30;99.90;;;;;;2608428;54;20403;-70
2023/03/29 06:53:30;;;;;;;13.93;8.40;;;7.30;99.90;;;;;;2612298;39;20546;-69
2023/03/29 06:59:18;;;;;;;8.90;7.60;;;7.50;99.90;;;;;;2610039;54;20378;-69
2023/03/29 07:05:10;;;;;;;7.77;6.47;;;7.70;99.90;;;;;;2609275;54;20159;-69
2023/03/29 07:10:58;;;;;;;11.43;7.50;;;7.80;99.90;;;;;;2611864;54;20395;-70
2023/03/29 07:16:48;;;;;;;10.67;6.70;;;7.90;99.90;;;;;;2611168;54;20134;-69
2023/03/29 07:22:36;;;;;;;9.00;6.47;;;8.10;99.90;;;;;;2611999;54;20410;-69
2023/03/29 07:38:49;;;;;;;6.00;5.50;;;8.60;99.90;;;;;;2612687;54;20414;-70
2023/03/29 07:44:36;;;;;;;6.30;5.80;;;8.70;99.90;;;;;;2610884;54;20123;-69
2023/03/29 07:50:25;;;;;;;6.80;6.20;;;8.80;99.90;;;;;;2613654;39;20602;-70
2023/03/29 07:56:12;;;;;;;7.10;6.53;;;8.90;99.90;;;;;;2612873;54;20359;-70
2023/03/29 08:01:59;;;;;;;10.20;6.53;;;9.10;99.90;;;;;;2610264;54;20165;-69
2023/03/29 08:07:46;;;;;;;7.43;6.80;;;9.10;99.90;;;;;;2612038;54;20286;-68
2023/03/29 08:13:34;;;;;;;8.50;6.73;;;9.30;99.90;;;;;;2611984;54;20126;-70
2023/03/29 08:19:21;;;;;;;7.13;6.57;;;9.30;99.90;;;;;;2609100;54;20142;-69
2023/03/29 08:25:10;;;;;;;7.77;7.07;;;9.40;99.90;;;;;;2608050;54;20181;-70
2023/03/29 08:31:15;;;;;;;6.80;6.20;;;9.40;99.90;;;;;;2611809;54;21056;-69
2023/03/29 08:37:03;;;;;;;7.70;6.90;;;9.70;99.90;;;;;;2609253;54;20175;-69
2023/03/29 08:49:25;;;;;;;13.67;6.57;;;9.50;99.90;;;;;;2613786;31;20852;-69
2023/03/29 08:52:41;;;;;;;7.33;6.60;;;9.40;99.90;;;;;;2609941;54;20428;-69
2023/03/29 09:01:42;;;;;;;8.80;6.70;;;9.30;99.90;;;;;;2609333;31;20860;-70
2023/03/29 09:07:30;;;;;;;7.20;6.33;;;9.50;99.90;;;;;;2611791;54;20471;-70
2023/03/29 09:24:14;;;;;;;7.27;6.40;;;10.30;99.90;;;;;;2611854;54;20398;-69
2023/03/29 09:36:53;;;;;;;11.00;8.10;;;10.60;99.90;;;;;;2611356;54;20399;-69
2023/03/29 09:42:40;;;;;;;8.53;7.70;;;11.10;99.90;;;;;;2612277;54;20968;-68
2023/03/29 09:48:33;;;;;;;8.53;7.63;;;11.80;99.90;;;;;;2613670;46;20427;-70
2023/03/29 09:54:21;;;;;;;9.37;8.17;;;11.80;99.90;;;;;;2613736;54;20359;-69
2023/03/29 10:00:10;;;;;;;8.60;7.90;;;11.50;99.90;;;;;;2611571;54;20255;-69
2023/03/29 10:06:01;;;;;;;13.70;8.10;;;11.60;99.90;;;;;;2611263;54;20391;-69
2023/03/29 10:11:55;;;;;;;9.40;7.77;;;11.90;99.90;;;;;;2611672;54;20360;-69
2023/03/29 10:17:44;;;;;;;9.37;8.47;;;12.60;99.90;;;;;;2610388;39;20667;-70
2023/03/29 10:23:35;;;;;;;9.20;8.37;;;12.60;94.50;;;;;;2610873;46;20395;-69
2023/03/29 10:32:46;;;;;;;9.20;8.23;;;12.20;99.90;;;;;;2612782;39;20767;-70
2023/03/29 10:38:35;;;;;;;11.80;8.40;;;12.30;98.40;;;;;;2613094;54;20390;-70
2023/03/29 10:51:00;;;;;;;8.90;8.20;;;13.40;80.10;;;;;;2613949;39;21019;-69
2023/03/29 11:03:21;;;;;;;7.83;7.13;;;12.80;90.30;;;;;;2611069;54;20452;-69
2023/03/29 11:22:43;;;;;;;10.30;9.30;;;14.40;75.40;;;;;;2612824;46;20395;-69
2023/03/29 11:32:40;;;;;;;10.53;8.77;;;14.10;67.20;;;;;;2610654;54;20391;-69
2023/03/29 11:41:45;;;;;;;9.77;9.00;;;14.70;59.20;;;;;;2609696;54;20450;-69
2023/03/29 12:03:39;;;;;;;9.03;8.23;;;15.50;55.30;;;;;;2612779;54;20519;-69
2023/03/29 12:16:12;;;;;;;10.97;10.10;;;16.10;49.50;;;;;;2609254;54;20486;-69
2023/03/29 12:22:01;;;;;;;11.13;10.23;;;17.00;43.90;;;;;;2609755;54;21103;-69
2023/03/29 12:41:21;;;;;;;11.10;10.10;;;16.30;36.90;;;;;;2610277;54;20535;-69
2023/03/29 12:53:51;;;;;;;10.57;9.77;;;15.10;41.40;;;;;;2612074;54;20420;-69
2023/03/29 12:59:43;;;;;;;11.13;10.13;;;14.80;48.00;;;;;;2609054;54;20398;-69
2023/03/29 13:05:33;;;;;;;12.57;11.27;;;14.50;52.90;;;;;;2608497;54;20371;-70
2023/03/29 13:22:08;;;;;;;11.40;10.60;;;15.90;35.60;;;;;;2610077;54;20924;-69
2023/03/29 13:28:10;;;;;;;11.33;10.33;;;16.20;36.10;;;;;;2609160;54;20427;-69
2023/03/29 13:40:28;;;;;;;10.60;9.77;;;15.70;34.30;;;;;;2611540;54;20459;-69
2023/03/29 13:46:40;;;;;;;10.60;9.60;;;15.50;43.70;;;;;;2612911;54;20362;-69
2023/03/29 13:52:33;;;;;;;10.17;9.57;;;14.90;48.10;;;;;;2609503;54;21188;-69
2023/03/29 13:58:53;;;;;;;11.17;10.27;;;15.10;55.90;;;;;;2611353;54;20398;-69
2023/03/29 14:04:45;;;;;;;11.63;10.50;;;15.60;50.60;;;;;;2610849;54;20383;-71
2023/03/29 14:10:42;;;;;;;9.87;8.97;;;16.10;39.30;;;;;;2611484;54;20395;-70
2023/03/29 14:16:34;;;;;;;10.87;10.17;;;16.00;40.10;;;;;;2609798;54;20555;-69
2023/03/29 14:22:21;;;;;;;11.57;10.70;;;16.00;39.10;;;;;;2611478;54;20450;-69
2023/03/29 14:34:49;;;;;;;11.27;10.37;;;15.60;46.00;;;;;;2610872;39;20950;-69
2023/03/29 14:40:37;;;;;;;10.70;9.77;;;15.90;47.30;;;;;;2609468;54;20387;-69
2023/03/29 14:46:25;;;;;;;10.63;9.70;;;15.90;47.60;;;;;;2614314;54;20158;-69
2023/03/29 14:52:14;;;;;;;11.03;10.23;;;15.80;48.70;;;;;;2613514;54;20391;-69
2023/03/29 14:58:01;;;;;;;9.80;9.20;;;15.60;51.30;;;;;;2611905;54;20360;-68
2023/03/29 15:03:53;;;;;;;10.37;9.50;;;15.80;48.90;;;;;;2611954;54;20135;-69
2023/03/29 15:09:44;;;;;;;10.27;9.50;;;15.60;50.80;;;;;;2612194;39;20691;-69
2023/03/29 15:15:35;;;;;;;9.90;9.20;;;16.00;49.00;;;;;;2612263;54;20371;-69
2023/03/29 15:21:29;;;;;;;11.30;8.87;;;16.00;49.00;;;;;;2613682;54;20399;-69
2023/03/29 15:27:19;;;;;;;8.90;8.40;;;15.90;43.40;;;;;;2614187;54;20399;-69
2023/03/29 15:36:31;;;;;;;9.27;8.77;;;15.80;46.10;;;;;;2610911;54;20419;-69
2023/03/29 15:42:18;;;;;;;8.10;7.60;;;15.80;48.90;;;;;;2611464;54;20949;-69
2023/03/29 15:54:23;;;;;;;9.87;7.87;;;15.60;46.80;;;;;;2611585;54;20377;-70
2023/03/29 16:03:32;;;;;;;9.17;8.63;;;15.50;48.20;;;;;;2611100;39;20648;-68
2023/03/29 16:09:20;;;;;;;8.00;7.57;;;15.30;52.70;;;;;;2610250;54;20209;-69
2023/03/29 16:15:17;;;;;;;8.90;8.40;;;15.30;51.70;;;;;;2611616;54;20477;-69
2023/03/29 16:21:05;;;;;;;8.97;8.17;;;15.40;56.00;;;;;;2612328;54;20471;-69
2023/03/29 16:26:56;;;;;;;8.50;7.77;;;15.40;57.10;;;;;;2612042;54;20384;-69
2023/03/29 16:36:29;;;;;;;9.40;8.50;;;15.40;56.80;;;;;;2608960;54;20407;-70
2023/03/29 16:42:17;;;;;;;9.80;9.30;;;15.40;55.60;;;;;;2612115;54;20382;-70
2023/03/29 16:48:05;;;;;;;8.90;8.50;;;15.30;63.20;;;;;;2612503;54;20150;-75
2023/03/29 16:53:53;;;;;;;10.13;9.27;;;15.30;64.30;;;;;;2610044;54;20134;-75
2023/03/29 16:59:43;;;;;;;9.60;8.90;;;15.30;61.70;;;;;;2608289;54;20126;-76
2023/03/29 17:05:36;;;;;;;8.90;8.40;;;15.30;60.60;;;;;;2606580;54;20575;-78
2023/03/29 17:11:24;;;;;;;8.80;8.30;;;15.30;60.70;;;;;;2606681;54;21566;-75
2023/03/29 17:17:12;;;;;;;8.77;8.27;;;15.30;60.10;;;;;;2608048;54;20404;-75
2023/03/29 17:23:00;;;;;;;8.60;8.20;;;15.30;59.60;;;;;;2603376;54;20783;-75
2023/03/29 17:28:48;;;;;;;9.47;8.77;;;15.30;62.30;;;;;;2610284;54;20130;-75
2023/03/29 17:31:52;;;;;;;8.90;8.20;;;15.20;66.10;;;;;;2612185;47;20450;-76
2023/03/29 17:34:18;;;;;;;10.07;9.53;;;15.20;68.80;;;;;;2613120;54;20182;-76
2023/03/29 17:40:12;;;;;;;10.00;9.33;;;15.20;76.00;;;;;;2611714;54;20134;-77
2023/03/29 17:46:00;;;;;;;9.00;8.30;;;15.20;76.20;;;;;;2611404;54;20487;-74
2023/03/29 17:51:48;;;;;;;7.23;6.80;;;15.20;79.80;;;;;;2608384;54;20149;-75
2023/03/29 17:57:37;;;;;;;7.63;7.10;;;15.10;82.20;;;;;;2612947;54;20142;-76
2023/03/29 18:03:25;;;;;;;8.77;7.90;;;15.20;71.70;;;;;;2609823;39;20755;-74
2023/03/29 18:09:13;;;;;;;7.63;7.03;;;15.20;72.70;;;;;;2610622;31;20822;-75
2023/03/29 18:15:02;;;;;;;7.53;7.10;;;15.10;74.10;;;;;;2607881;54;20138;-76
2023/03/29 18:20:50;;;;;;;9.10;8.50;;;15.00;78.40;;;;;;2610846;54;20462;-76
2023/03/29 18:26:38;;;;;;;8.30;7.80;;;14.90;83.10;;;;;;2611292;54;20419;-75
2023/03/29 18:36:25;;;;;;;8.73;8.13;;;14.80;91.50;;;;;;2610422;54;20439;-75
2023/03/29 18:42:13;;;;;;;8.37;7.23;;;14.80;96.50;;;;;;2608507;54;20418;-76
2023/03/29 18:48:00;;;;;;;7.90;7.37;;;14.70;99.90;;;;;;2608688;39;20570;-75
2023/03/29 18:53:49;;;;;;;8.20;7.60;;;14.80;99.90;;;;;;2612681;54;20118;-76
2023/03/29 18:59:36;;;;;;;7.67;7.17;;;14.80;99.90;;;;;;2610557;54;20936;-75
2023/03/29 19:05:24;;;;;;;7.00;6.40;;;14.80;99.90;;;;;;2612153;54;20122;-75
2023/03/29 19:11:15;;;;;;;7.70;7.00;;;14.80;99.90;;;;;;2610539;39;20301;-75
2023/03/29 19:17:02;;;;;;;7.07;6.60;;;14.70;99.90;;;;;;2611927;54;20434;-75
2023/03/29 19:22:50;;;;;;;7.27;6.60;;;14.70;99.90;;;;;;2613305;54;20126;-75
2023/03/29 19:28:38;;;;;;;6.20;5.70;;;14.60;99.90;;;;;;2612683;39;20752;-75
2023/03/29 19:31:55;;;;;;;7.53;5.77;;;14.70;99.90;;;;;;2609674;54;20404;-75
2023/03/29 19:34:23;;;;;;;6.23;5.73;;;14.60;99.90;;;;;;2611245;54;20150;-75
2023/03/29 19:40:11;;;;;;;6.83;5.80;;;14.60;99.90;;;;;;2610944;54;20548;-76
2023/03/29 19:46:06;;;;;;;6.63;5.80;;;14.40;99.90;;;;;;2613490;54;20479;-76
2023/03/29 19:51:55;;;;;;;6.53;5.40;;;14.60;99.90;;;;;;2614171;54;20395;-75
2023/03/29 19:57:42;;;;;;;5.10;4.70;;;14.40;99.90;;;;;;2613960;54;20383;-76
2023/03/29 20:03:32;;;;;;;5.43;5.03;;;14.50;99.90;;;;;;2613909;54;20131;-77
2023/03/29 20:06:36;;;;;;;5.97;5.57;;;14.40;99.90;;;;;;2613489;54;21017;-76
2023/03/29 20:09:04;;;;;;;5.90;5.40;;;14.40;99.90;;;;;;2614260;39;20607;-76
2023/03/29 20:14:51;;;;;;;6.50;5.90;;;14.30;99.90;;;;;;2612674;54;21019;-75
2023/03/29 20:20:39;;;;;;;10.83;6.47;;;14.40;99.90;;;;;;2611727;54;20134;-76
2023/03/29 20:26:27;;;;;;;6.90;5.60;;;14.30;99.90;;;;;;2611070;39;20864;-70
2023/03/29 20:36:29;;;;;;;7.13;5.63;;;14.00;99.90;;;;;;2612596;39;20738;-70
2023/03/29 20:42:23;;;;;;;5.30;4.83;;;14.10;99.90;;;;;;2611463;54;20418;-70
2023/03/29 20:48:12;;;;;;;6.37;5.73;;;14.10;99.90;;;;;;2614305;39;21036;-70
2023/03/29 20:54:03;;;;;;;8.53;5.87;;;14.10;99.90;;;;;;2613814;39;20753;-69
2023/03/29 20:59:52;;;;;;;6.37;5.73;;;14.00;99.90;;;;;;2611340;39;20789;-70
2023/03/29 21:05:39;;;;;;;6.80;5.03;;;14.00;99.90;;;;;;2613396;54;20367;-69
2023/03/29 21:11:27;;;;;;;9.60;4.80;;;13.90;99.90;;;;;;2613613;54;20659;-70
2023/03/29 21:17:15;;;;;;;5.70;5.10;;;13.90;99.90;;;;;;2612940;54;20134;-69
2023/03/29 21:23:03;;;;;;;5.83;5.40;;;13.90;99.90;;;;;;2612793;54;20238;-69
2023/03/29 21:28:51;;;;;;;5.40;5.00;;;14.10;99.90;;;;;;2612566;54;20396;-69
2023/03/29 21:34:57;;;;;;;11.30;6.27;;;13.90;99.90;;;;;;2612173;54;20410;-68
2023/03/29 21:40:44;;;;;;;5.00;4.67;;;13.90;99.90;;;;;;2612731;54;20152;-69
2023/03/29 21:46:31;;;;;;;7.70;5.67;;;14.00;99.90;;;;;;2610553;46;20150;-69
2023/03/29 21:52:19;;;;;;;6.60;6.07;;;13.90;99.90;;;;;;2609917;54;20129;-69
2023/03/29 21:58:06;;;;;;;6.87;5.17;;;13.80;99.90;;;;;;2609904;54;20165;-69
2023/03/29 22:03:53;;;;;;;6.50;5.80;;;13.90;99.90;;;;;;2610719;54;20459;-68
2023/03/29 22:09:41;;;;;;;7.03;5.60;;;13.90;99.90;;;;;;2609195;54;20146;-69
2023/03/29 22:15:34;;;;;;;6.30;5.80;;;13.80;99.90;;;;;;2611009;54;20363;-69
2023/03/29 22:21:25;;;;;;;6.13;5.53;;;13.70;99.90;;;;;;2611742;54;20391;-69
2023/03/29 22:27:13;;;;;;;6.57;6.00;;;13.70;99.90;;;;;;2611302;54;20400;-68
2023/03/29 22:36:26;;;;;;;6.13;5.70;;;13.90;99.90;;;;;;2614793;54;20949;-69
2023/03/29 22:42:14;;;;;;;6.20;5.70;;;14.00;99.90;;;;;;2613267;54;20366;-69
2023/03/29 22:48:01;;;;;;;6.40;5.80;;;13.90;99.90;;;;;;2613239;54;20126;-69
2023/03/29 22:53:49;;;;;;;7.17;6.60;;;14.00;99.90;;;;;;2613242;54;22399;-68
2023/03/29 22:59:37;;;;;;;6.13;5.63;;;14.30;99.90;;;;;;2613696;54;20359;-69
2023/03/29 23:05:25;;;;;;;9.70;5.90;;;14.10;99.90;;;;;;2614178;54;20142;-69
2023/03/29 23:11:12;;;;;;;6.70;6.20;;;14.10;99.90;;;;;;2613260;54;20138;-69
2023/03/29 23:17:00;;;;;;;11.30;7.20;;;14.10;98.90;;;;;;2613361;54;20126;-68
2023/03/29 23:22:48;;;;;;;6.53;5.77;;;14.00;99.30;;;;;;2613665;54;20133;-68
2023/03/29 23:28:36;;;;;;;8.37;6.80;;;14.00;99.90;;;;;;2614481;39;20532;-69
2023/03/29 23:37:46;;;;;;;7.93;5.70;;;14.00;97.60;;;;;;2613724;54;20857;-68
2023/03/29 23:43:36;;;;;;;9.03;8.13;;;13.90;99.00;;;;;;2612666;54;20158;-69
2023/03/29 23:49:23;;;;;;;7.67;6.73;;;13.80;97.40;;;;;;2613750;54;20386;-69
2023/03/29 23:55:14;;;;;;;7.30;6.70;;;13.80;95.80;;;;;;2613970;54;20122;-69
